createdAt,value
2019-03-25T00:01:20.695Z,100413.77
2019-03-25T00:03:52.320Z,100409.18
2019-03-25T00:06:23.927Z,100402.64
2019-03-25T00:09:04.779Z,100403.60
2019-03-25T00:11:28.559Z,100409.06
2019-03-25T00:14:00.112Z,100409.48
2019-03-25T00:16:31.650Z,100407.95
2019-03-25T00:19:06.004Z,100408.43
2019-03-25T00:21:37.611Z,100415.63
2019-03-25T00:24:08.955Z,100409.72
2019-03-25T00:26:40.556Z,100402.16
2019-03-25T00:29:11.955Z,100403.80
2019-03-25T00:31:43.322Z,100398.38
2019-03-25T00:34:14.896Z,100405.56
2019-03-25T00:36:46.483Z,100398.67
2019-03-25T00:39:17.791Z,100399.63
2019-03-25T00:41:49.311Z,100396.25
2019-03-25T00:44:20.741Z,100397.20
2019-03-25T00:46:52.328Z,100392.14
2019-03-25T00:49:23.632Z,100392.63
2019-03-25T00:51:55.252Z,100394.52
2019-03-25T00:54:26.799Z,100395.11
2019-03-25T00:56:58.171Z,100389.71
2019-03-25T00:59:29.586Z,100388.80
2019-03-25T01:02:00.874Z,100390.30
2019-03-25T01:04:33.195Z,100387.84
2019-03-25T01:07:04.855Z,100396.70
2019-03-25T01:09:36.393Z,100391.20
2019-03-25T01:12:07.955Z,100389.70
2019-03-25T01:14:39.747Z,100385.97
2019-03-25T01:17:11.602Z,100383.36
2019-03-25T01:19:43.286Z,100383.61
2019-03-25T01:22:14.568Z,100390.00
2019-03-25T01:24:45.952Z,100388.42
2019-03-25T01:27:17.250Z,100380.65
2019-03-25T01:29:48.804Z,100386.12
2019-03-25T01:32:20.091Z,100384.09
2019-03-25T01:34:51.407Z,100385.20
2019-03-25T01:37:22.718Z,100386.77
2019-03-25T01:39:54.580Z,100388.70
2019-03-25T01:42:26.537Z,100386.89
2019-03-25T01:44:58.092Z,100381.86
2019-03-25T01:47:29.863Z,100384.12
2019-03-25T01:50:01.168Z,100381.81
2019-03-25T01:52:32.705Z,100378.89
2019-03-25T01:55:12.926Z,100377.84
2019-03-25T01:57:37.395Z,100372.41
2019-03-25T02:00:09.902Z,100364.08
2019-03-25T02:02:41.483Z,100367.16
2019-03-25T02:05:12.957Z,100365.09
2019-03-25T02:07:44.247Z,100361.04
2019-03-25T02:10:15.719Z,100351.42
2019-03-25T02:12:47.027Z,100349.20
2019-03-25T02:15:18.488Z,100348.13
2019-03-25T02:17:50.061Z,100354.57
2019-03-25T02:20:26.486Z,100351.97
2019-03-25T02:22:54.897Z,100351.88
2019-03-25T02:25:26.273Z,100354.67
2019-03-25T02:27:57.568Z,100349.02
2019-03-25T02:30:29.110Z,100348.38
2019-03-25T02:33:00.425Z,100336.70
2019-03-25T02:35:31.809Z,100339.73
2019-03-25T02:38:03.329Z,100335.98
2019-03-25T02:40:34.723Z,100339.63
2019-03-25T02:43:06.031Z,100339.36
2019-03-25T02:45:37.609Z,100344.08
2019-03-25T02:48:08.911Z,100336.29
2019-03-25T02:50:41.339Z,100337.77
2019-03-25T02:53:13.838Z,100340.54
2019-03-25T02:55:45.172Z,100339.09
2019-03-25T02:58:16.850Z,100344.71
2019-03-25T03:00:48.464Z,100345.55
2019-03-25T03:03:20.728Z,100341.61
2019-03-25T03:05:52.264Z,100341.61
2019-03-25T03:08:24.537Z,100337.16
2019-03-25T03:10:56.134Z,100337.16
2019-03-25T03:13:27.672Z,100338.50
2019-03-25T03:15:59.491Z,100332.03
2019-03-25T03:18:31.304Z,100326.91
2019-03-25T03:21:05.773Z,100330.31
2019-03-25T03:23:37.360Z,100333.13
2019-03-25T03:26:08.774Z,100328.28
2019-03-25T03:28:40.136Z,100319.91
2019-03-25T03:31:11.446Z,100329.70
2019-03-25T03:33:43.106Z,100321.67
2019-03-25T03:36:14.638Z,100318.20
2019-03-25T03:38:46.213Z,100319.58
2019-03-25T03:41:18.074Z,100309.24
2019-03-25T03:43:49.618Z,100315.89
2019-03-25T03:46:21.010Z,100311.38
2019-03-25T03:48:52.614Z,100314.92
2019-03-25T03:51:24.007Z,100309.05
2019-03-25T03:53:56.646Z,100304.83
2019-03-25T03:56:28.563Z,100299.97
2019-03-25T03:59:00.769Z,100295.59
2019-03-25T04:01:32.308Z,100293.88
2019-03-25T04:04:03.608Z,100291.91
2019-03-25T04:06:35.429Z,100297.50
2019-03-25T04:09:07.312Z,100290.53
2019-03-25T04:11:38.891Z,100292.58
2019-03-25T04:14:10.267Z,100296.57
2019-03-25T04:16:41.579Z,100296.20
2019-03-25T04:19:12.882Z,100290.39
2019-03-25T04:21:44.282Z,100302.06
2019-03-25T04:24:15.840Z,100295.63
2019-03-25T04:26:47.380Z,100290.53
2019-03-25T04:29:19.887Z,100287.53
2019-03-25T04:31:51.358Z,100287.27
2019-03-25T04:34:22.728Z,100286.30
2019-03-25T04:36:54.060Z,100285.52
2019-03-25T04:39:25.908Z,100285.22
2019-03-25T04:41:57.215Z,100278.50
2019-03-25T04:44:28.816Z,100277.31
2019-03-25T04:47:00.632Z,100287.27
2019-03-25T04:49:32.425Z,100283.54
2019-03-25T04:52:03.727Z,100281.25
2019-03-25T04:54:35.109Z,100277.73
2019-03-25T04:57:06.844Z,100272.34
2019-03-25T04:59:38.138Z,100273.48
2019-03-25T05:02:09.455Z,100271.91
2019-03-25T05:04:41.024Z,100276.23
2019-03-25T05:07:12.372Z,100279.63
2019-03-25T05:09:43.947Z,100274.84
2019-03-25T05:12:16.024Z,100273.73
2019-03-25T05:14:47.320Z,100276.77
2019-03-25T05:17:18.634Z,100275.20
2019-03-25T05:19:49.940Z,100272.23
2019-03-25T05:22:21.481Z,100270.23
2019-03-25T05:24:53.604Z,100273.39
2019-03-25T05:27:24.910Z,100268.84
2019-03-25T05:29:56.556Z,100259.53
2019-03-25T05:32:28.120Z,100255.59
2019-03-25T05:34:59.407Z,100257.61
2019-03-25T05:37:30.972Z,100260.94
2019-03-25T05:40:02.944Z,100260.80
2019-03-25T05:42:34.568Z,100265.06
2019-03-25T05:45:06.159Z,100263.25
2019-03-25T05:47:37.700Z,100257.58
2019-03-25T05:50:09.457Z,100251.25
2019-03-25T05:52:42.018Z,100255.25
2019-03-25T05:55:13.396Z,100256.93
2019-03-25T05:57:44.942Z,100251.18
2019-03-25T06:00:17.591Z,100249.40
2019-03-25T06:02:49.131Z,100248.53
2019-03-25T06:05:20.419Z,100253.42
2019-03-25T06:07:51.729Z,100259.19
2019-03-25T06:10:23.156Z,100253.98
2019-03-25T06:12:54.696Z,100258.64
2019-03-25T06:15:26.574Z,100256.84
2019-03-25T06:17:57.881Z,100258.81
2019-03-25T06:20:29.182Z,100254.02
2019-03-25T06:23:01.227Z,100248.05
2019-03-25T06:25:32.595Z,100245.23
2019-03-25T06:28:03.969Z,100258.13
2019-03-25T06:30:35.348Z,100254.11
2019-03-25T06:33:12.350Z,100248.11
2019-03-25T06:35:40.348Z,100237.48
2019-03-25T06:38:12.235Z,100244.92
2019-03-25T06:40:43.604Z,100253.50
2019-03-25T06:43:14.931Z,100252.53
2019-03-25T06:45:46.469Z,100258.28
2019-03-25T06:48:18.038Z,100259.06
2019-03-25T06:50:49.340Z,100255.50
2019-03-25T06:53:20.982Z,100254.94
2019-03-25T06:55:52.287Z,100250.10
2019-03-25T06:58:23.837Z,100238.25
2019-03-25T07:00:55.227Z,100246.74
2019-03-25T07:03:26.632Z,100255.48
2019-03-25T07:05:57.960Z,100242.12
2019-03-25T07:08:29.479Z,100237.20
2019-03-25T07:11:01.161Z,100226.62
2019-03-25T07:13:32.744Z,100228.11
2019-03-25T07:16:04.067Z,100236.38
2019-03-25T07:18:35.630Z,100245.78
2019-03-25T07:21:07.173Z,100246.00
2019-03-25T07:23:38.558Z,100250.77
2019-03-25T07:26:10.117Z,100251.06
2019-03-25T07:28:41.776Z,100251.11
2019-03-25T07:31:13.387Z,100245.33
2019-03-25T07:33:44.934Z,100249.40
2019-03-25T07:36:16.841Z,100256.26
2019-03-25T07:38:48.167Z,100268.23
2019-03-25T07:41:19.745Z,100266.86
2019-03-25T07:43:51.076Z,100270.02
2019-03-25T07:46:22.882Z,100263.19
2019-03-25T07:48:54.246Z,100265.24
2019-03-25T07:51:25.780Z,100263.28
2019-03-25T07:53:57.599Z,100263.11
2019-03-25T07:56:28.915Z,100264.86
2019-03-25T07:59:00.301Z,100265.14
2019-03-25T08:01:31.839Z,100260.70
2019-03-25T08:04:03.160Z,100267.52
2019-03-25T08:06:34.449Z,100270.91
2019-03-25T08:09:07.023Z,100266.93
2019-03-25T08:11:38.811Z,100269.45
2019-03-25T08:14:10.111Z,100275.61
2019-03-25T08:16:41.634Z,100271.93
2019-03-25T08:19:12.965Z,100269.66
2019-03-25T08:21:44.619Z,100271.24
2019-03-25T08:24:16.013Z,100277.64
2019-03-25T08:26:47.651Z,100279.05
2019-03-25T08:29:19.177Z,100274.17
2019-03-25T08:31:51.024Z,100271.23
2019-03-25T08:34:22.324Z,100270.28
2019-03-25T08:36:53.717Z,100274.48
2019-03-25T08:39:25.020Z,100275.61
2019-03-25T08:41:56.632Z,100279.20
2019-03-25T08:44:28.467Z,100272.66
2019-03-25T08:47:00.057Z,100282.46
2019-03-25T08:49:31.536Z,100282.81
2019-03-25T08:52:03.380Z,100288.72
2019-03-25T08:54:37.910Z,100288.16
2019-03-25T08:57:09.741Z,100281.69
2019-03-25T08:59:41.352Z,100291.63
2019-03-25T09:02:12.899Z,100289.88
2019-03-25T09:04:44.999Z,100294.24
2019-03-25T09:07:16.912Z,100294.20
2019-03-25T09:09:48.217Z,100304.37
2019-03-25T09:12:19.543Z,100301.47
2019-03-25T09:14:51.140Z,100306.19
2019-03-25T09:17:22.692Z,100304.16
2019-03-25T09:19:54.506Z,100298.55
2019-03-25T09:22:26.186Z,100311.31
2019-03-25T09:24:57.967Z,100309.16
2019-03-25T09:27:29.416Z,100310.50
2019-03-25T09:30:03.169Z,100306.27
2019-03-25T09:32:34.857Z,100308.17
2019-03-25T09:35:06.544Z,100305.05
2019-03-25T09:37:38.193Z,100309.42
2019-03-25T09:40:10.781Z,100311.56
2019-03-25T09:42:42.317Z,100305.86
2019-03-25T09:45:14.089Z,100308.37
2019-03-25T09:47:45.475Z,100316.25
2019-03-25T09:50:16.850Z,100320.72
2019-03-25T09:52:48.379Z,100312.91
2019-03-25T09:55:19.675Z,100310.15
2019-03-25T09:57:50.981Z,100310.33
2019-03-25T10:00:27.007Z,100315.44
2019-03-25T10:02:58.611Z,100310.12
2019-03-25T10:05:29.975Z,100312.98
2019-03-25T10:08:01.709Z,100314.59
2019-03-25T10:10:33.242Z,100311.06
2019-03-25T10:13:04.859Z,100310.91
2019-03-25T10:15:36.563Z,100292.66
2019-03-25T10:18:08.171Z,100299.98
2019-03-25T10:20:40.085Z,100289.82
2019-03-25T10:23:11.691Z,100281.50
2019-03-25T10:25:42.997Z,100273.48
2019-03-25T10:28:14.560Z,100277.70
2019-03-25T10:30:46.546Z,100278.71
2019-03-25T10:33:17.934Z,100277.13
2019-03-25T10:35:49.301Z,100275.13
2019-03-25T10:38:20.690Z,100264.59
2019-03-25T10:40:52.292Z,100261.13
2019-03-25T10:43:23.629Z,100258.74
2019-03-25T10:45:55.031Z,100254.97
2019-03-25T10:48:26.425Z,100254.36
2019-03-25T10:50:57.794Z,100251.27
2019-03-25T10:53:29.093Z,100250.69
2019-03-25T10:56:00.614Z,100247.14
2019-03-25T10:58:31.924Z,100242.73
2019-03-25T11:01:03.537Z,100232.45
2019-03-25T11:03:34.932Z,100231.22
2019-03-25T11:06:06.624Z,100238.77
2019-03-25T11:08:38.011Z,100241.81
2019-03-25T11:11:09.402Z,100240.28
2019-03-25T11:13:40.715Z,100240.43
2019-03-25T11:16:12.399Z,100240.93
2019-03-25T11:18:43.979Z,100243.85
2019-03-25T11:21:15.865Z,100242.73
2019-03-25T11:24:05.690Z,100247.88
2019-03-25T11:26:38.050Z,100238.50
2019-03-25T11:29:09.531Z,100232.56
2019-03-25T11:31:41.934Z,100234.33
2019-03-25T11:34:13.540Z,100227.21
2019-03-25T11:36:45.100Z,100243.50
2019-03-25T11:39:17.380Z,100238.20
2019-03-25T11:41:48.693Z,100235.38
2019-03-25T11:44:20.165Z,100237.83
2019-03-25T11:46:51.788Z,100235.14
2019-03-25T11:49:23.333Z,100232.16
2019-03-25T11:52:08.387Z,100231.80
2019-03-25T11:54:39.686Z,100224.95
2019-03-25T11:57:12.438Z,100223.49
2019-03-25T11:59:44.052Z,100214.16
2019-03-25T12:02:17.836Z,100209.13
2019-03-25T12:04:48.737Z,100206.05
2019-03-25T12:07:20.035Z,100211.84
2019-03-25T12:09:52.168Z,100202.94
2019-03-25T12:12:23.764Z,100205.09
2019-03-25T12:14:55.086Z,100201.90
2019-03-25T12:17:26.721Z,100218.12
2019-03-25T12:19:58.982Z,100226.58
2019-03-25T12:22:30.366Z,100233.17
2019-03-25T12:25:01.759Z,100228.08
2019-03-25T12:27:33.402Z,100239.66
2019-03-25T12:30:05.333Z,100240.95
2019-03-25T12:32:36.871Z,100240.93
2019-03-25T12:35:08.530Z,100243.96
2019-03-25T12:37:40.078Z,100238.98
2019-03-25T12:40:11.615Z,100232.69
2019-03-25T12:42:43.243Z,100231.55
2019-03-25T12:45:15.623Z,100241.67
2019-03-25T12:47:47.278Z,100250.90
2019-03-25T12:50:18.756Z,100249.53
2019-03-25T12:52:50.137Z,100263.48
2019-03-25T12:55:21.563Z,100283.80
2019-03-25T12:57:53.350Z,100294.05
2019-03-25T13:00:44.048Z,100299.34
2019-03-25T13:03:15.947Z,100280.46
2019-03-25T13:05:47.342Z,100292.34
2019-03-25T13:08:18.715Z,100292.72
2019-03-25T13:10:50.666Z,100297.71
2019-03-25T13:13:22.298Z,100303.69
2019-03-25T13:15:54.391Z,100287.89
2019-03-25T13:18:25.702Z,100292.69
2019-03-25T13:20:57.306Z,100279.92
2019-03-25T13:23:28.616Z,100288.72
2019-03-25T13:26:00.237Z,100287.77
2019-03-25T13:28:32.385Z,100288.73
2019-03-25T13:31:03.670Z,100288.15
2019-03-25T13:33:35.027Z,100283.48
2019-03-25T13:36:06.964Z,100298.48
2019-03-25T13:38:38.493Z,100289.77
2019-03-25T13:41:10.028Z,100286.70
2019-03-25T13:43:43.712Z,100286.24
2019-03-25T13:46:14.394Z,100293.34
2019-03-25T13:48:46.423Z,100300.81
2019-03-25T13:51:18.680Z,100291.49
2019-03-25T13:53:50.507Z,100285.97
2019-03-25T13:56:22.384Z,100278.19
2019-03-25T13:58:55.127Z,100278.55
2019-03-25T14:01:26.900Z,100282.88
2019-03-25T14:03:58.707Z,100283.89
2019-03-25T14:06:30.013Z,100283.30
2019-03-25T14:09:01.671Z,100274.99
2019-03-25T14:11:34.581Z,100267.30
2019-03-25T14:14:06.240Z,100264.36
2019-03-25T14:16:37.536Z,100273.64
2019-03-25T14:19:09.151Z,100259.98
2019-03-25T14:21:41.006Z,100246.36
2019-03-25T14:24:12.635Z,100244.13
2019-03-25T14:26:44.159Z,100249.82
2019-03-25T14:29:15.493Z,100252.77
2019-03-25T14:31:47.342Z,100250.55
2019-03-25T14:34:18.660Z,100250.02
2019-03-25T14:36:50.348Z,100255.50
2019-03-25T14:39:21.932Z,100269.01
2019-03-25T14:41:53.232Z,100255.59
2019-03-25T14:44:24.539Z,100254.67
2019-03-25T14:46:56.073Z,100260.74
2019-03-25T14:49:27.379Z,100288.02
2019-03-25T14:51:58.748Z,100323.44
2019-03-25T14:54:30.291Z,100308.48
2019-03-25T14:57:01.670Z,100317.77
2019-03-25T14:59:32.983Z,100320.59
2019-03-25T15:02:04.356Z,100331.64
2019-03-25T15:04:36.147Z,100343.80
2019-03-25T15:07:08.107Z,100342.56
2019-03-25T15:09:39.485Z,100350.11
2019-03-25T15:12:10.791Z,100345.59
2019-03-25T15:14:42.390Z,100348.53
2019-03-25T15:17:13.682Z,100344.75
2019-03-25T15:19:44.988Z,100349.59
2019-03-25T15:22:16.577Z,100350.95
2019-03-25T15:24:47.954Z,100355.55
2019-03-25T15:27:19.483Z,100363.20
2019-03-25T15:29:51.531Z,100361.61
2019-03-25T15:32:23.040Z,100363.95
2019-03-25T15:34:54.422Z,100365.42
2019-03-25T15:37:25.715Z,100357.45
2019-03-25T15:39:57.015Z,100362.37
2019-03-25T15:42:28.308Z,100361.39
2019-03-25T15:44:59.850Z,100357.56
2019-03-25T15:47:31.508Z,100356.01
2019-03-25T15:50:03.207Z,100371.72
2019-03-25T15:52:34.566Z,100358.30
2019-03-25T15:55:06.272Z,100362.94
2019-03-25T15:57:39.853Z,100355.23
2019-03-25T16:00:14.050Z,100354.38
2019-03-25T16:02:45.655Z,100355.14
2019-03-25T16:05:17.379Z,100355.41
2019-03-25T16:07:48.814Z,100352.17
2019-03-25T16:10:20.486Z,100359.03
2019-03-25T16:12:52.183Z,100355.33
2019-03-25T16:15:40.744Z,100352.91
2019-03-25T16:18:31.766Z,100350.51
2019-03-25T16:21:03.305Z,100347.00
2019-03-25T16:23:34.976Z,100350.78
2019-03-25T16:26:06.732Z,100351.16
2019-03-25T16:28:38.490Z,100348.28
2019-03-25T16:31:10.439Z,100361.11
2019-03-25T16:33:41.809Z,100367.00
2019-03-25T16:36:13.122Z,100364.98
2019-03-25T16:38:44.622Z,100377.69
2019-03-25T16:41:16.431Z,100379.82
2019-03-25T16:43:47.942Z,100379.75
2019-03-25T16:46:19.383Z,100379.14
2019-03-25T16:48:50.705Z,100381.28
2019-03-25T16:51:22.011Z,100375.90
2019-03-25T16:53:53.302Z,100383.83
2019-03-25T16:56:24.835Z,100382.61
2019-03-25T16:58:56.136Z,100385.75
2019-03-25T17:01:27.996Z,100388.17
2019-03-25T17:03:59.287Z,100369.73
2019-03-25T17:06:31.098Z,100391.59
2019-03-25T17:09:02.835Z,100397.12
2019-03-25T17:11:35.429Z,100397.45
2019-03-25T17:14:07.043Z,100398.12
2019-03-25T17:16:38.563Z,100403.37
2019-03-25T17:19:10.246Z,100404.44
2019-03-25T17:21:41.598Z,100407.23
2019-03-25T17:24:14.241Z,100411.98
2019-03-25T17:26:45.971Z,100413.16
2019-03-25T17:29:17.598Z,100410.50
2019-03-25T17:31:48.892Z,100412.77
2019-03-25T17:34:20.554Z,100411.91
2019-03-25T17:36:52.071Z,100415.11
2019-03-25T17:39:24.101Z,100420.28
2019-03-25T17:41:55.672Z,100420.22
2019-03-25T17:44:27.304Z,100424.62
2019-03-25T17:46:58.608Z,100429.56
2019-03-25T17:49:29.898Z,100422.41
2019-03-25T17:52:01.201Z,100426.48
2019-03-25T17:54:32.911Z,100426.81
2019-03-25T17:57:04.373Z,100431.81
2019-03-25T17:59:35.714Z,100432.89
2019-03-25T18:02:07.174Z,100437.55
2019-03-25T18:04:38.462Z,100440.81
2019-03-25T18:07:09.869Z,100451.91
2019-03-25T18:09:41.167Z,100451.38
2019-03-25T18:12:12.703Z,100468.66
2019-03-25T18:14:45.220Z,100482.01
2019-03-25T18:17:16.842Z,100479.75
2019-03-25T18:19:48.378Z,100482.77
2019-03-25T18:22:19.706Z,100491.34
2019-03-25T18:24:51.315Z,100507.05
2019-03-25T18:27:22.847Z,100500.16
2019-03-25T18:29:54.446Z,100505.23
2019-03-25T18:32:25.819Z,100523.16
2019-03-25T18:34:57.496Z,100519.52
2019-03-25T18:37:29.022Z,100525.14
2019-03-25T18:40:00.548Z,100529.30
2019-03-25T18:42:32.447Z,100535.75
2019-03-25T18:45:04.127Z,100541.53
2019-03-25T18:47:35.664Z,100542.55
2019-03-25T18:50:07.393Z,100546.42
2019-03-25T18:52:38.731Z,100541.70
2019-03-25T18:55:10.330Z,100544.48
2019-03-25T18:57:42.491Z,100553.02
2019-03-25T19:00:20.524Z,100558.55
2019-03-25T19:02:51.864Z,100566.97
2019-03-25T19:05:23.545Z,100561.77
2019-03-25T19:07:55.202Z,100562.58
2019-03-25T19:10:29.908Z,100557.51
2019-03-25T19:13:01.222Z,100564.49
2019-03-25T19:15:33.038Z,100565.91
2019-03-25T19:18:04.348Z,100564.14
2019-03-25T19:20:36.101Z,100565.25
2019-03-25T19:23:07.662Z,100573.30
2019-03-25T19:25:39.565Z,100580.84
2019-03-25T19:28:11.430Z,100594.84
2019-03-25T19:30:42.740Z,100600.88
2019-03-25T19:33:14.061Z,100606.11
2019-03-25T19:35:45.665Z,100612.43
2019-03-25T19:38:17.241Z,100612.43
2019-03-25T19:40:48.656Z,100614.55
2019-03-25T19:43:19.924Z,100619.89
2019-03-25T19:45:51.463Z,100624.33
2019-03-25T19:48:23.000Z,100625.77
2019-03-25T19:50:54.386Z,100622.79
2019-03-25T19:53:27.460Z,100631.98
2019-03-25T19:55:59.086Z,100633.64
2019-03-25T19:58:30.659Z,100633.64
2019-03-25T20:01:02.036Z,100640.45
2019-03-25T20:03:33.615Z,100638.40
2019-03-25T20:06:05.030Z,100642.31
2019-03-25T20:08:36.883Z,100643.69
2019-03-25T20:11:08.490Z,100647.59
2019-03-25T20:13:39.961Z,100658.89
2019-03-25T20:16:11.730Z,100664.14
2019-03-25T20:18:44.201Z,100666.39
2019-03-25T20:21:15.711Z,100667.22
2019-03-25T20:23:50.273Z,100672.16
2019-03-25T20:26:20.853Z,100679.72
2019-03-25T20:28:52.491Z,100672.74
2019-03-25T20:31:24.088Z,100680.07
2019-03-25T20:33:55.591Z,100681.88
2019-03-25T20:36:27.106Z,100685.78
2019-03-25T20:38:58.713Z,100686.62
2019-03-25T20:41:30.352Z,100695.81
2019-03-25T20:44:01.917Z,100695.29
2019-03-25T20:46:33.553Z,100700.44
2019-03-25T20:49:05.081Z,100698.95
2019-03-25T20:51:36.432Z,100700.84
2019-03-25T20:54:08.053Z,100694.73
2019-03-25T20:56:39.683Z,100698.66
2019-03-25T20:59:11.235Z,100703.39
2019-03-25T21:01:42.511Z,100708.78
2019-03-25T21:04:14.404Z,100715.97
2019-03-25T21:06:45.714Z,100718.21
2019-03-25T21:09:18.390Z,100724.14
2019-03-25T21:11:50.038Z,100733.55
2019-03-25T21:14:21.878Z,100740.77
2019-03-25T21:16:53.417Z,100741.67
2019-03-25T21:19:25.377Z,100746.60
2019-03-25T21:21:56.718Z,100742.36
2019-03-25T21:24:28.599Z,100737.53
2019-03-25T21:27:00.037Z,100750.14
2019-03-25T21:29:31.600Z,100750.58
2019-03-25T21:32:02.971Z,100738.95
2019-03-25T21:34:34.442Z,100750.14
2019-03-25T21:37:06.042Z,100745.59
2019-03-25T21:39:37.359Z,100755.64
2019-03-25T21:42:08.869Z,100761.16
2019-03-25T21:44:40.440Z,100765.13
2019-03-25T21:47:11.844Z,100771.91
2019-03-25T21:49:43.294Z,100768.66
2019-03-25T21:52:15.332Z,100775.50
2019-03-25T21:54:46.723Z,100777.08
2019-03-25T21:57:18.238Z,100777.02
2019-03-25T21:59:49.893Z,100778.41
2019-03-25T22:02:21.502Z,100786.95
2019-03-25T22:04:53.052Z,100785.33
2019-03-25T22:07:24.593Z,100777.46
2019-03-25T22:09:56.725Z,100782.63
2019-03-25T22:12:28.251Z,100789.06
2019-03-25T22:14:59.854Z,100789.03
2019-03-25T22:17:31.469Z,100799.70
2019-03-25T22:20:03.311Z,100798.71
2019-03-25T22:22:34.691Z,100808.23
2019-03-25T22:25:06.185Z,100797.53
2019-03-25T22:27:37.661Z,100801.26
2019-03-25T22:30:10.710Z,100806.73
2019-03-25T22:32:41.988Z,100802.85
2019-03-25T22:35:14.584Z,100799.33
2019-03-25T22:37:46.111Z,100799.72
2019-03-25T22:40:17.750Z,100801.20
2019-03-25T22:42:49.545Z,100796.50
2019-03-25T22:45:29.102Z,100805.23
2019-03-25T22:48:00.554Z,100806.33
2019-03-25T22:50:32.688Z,100805.98
2019-03-25T22:53:04.139Z,100806.42
2019-03-25T22:55:35.491Z,100810.92
2019-03-25T22:58:07.403Z,100808.33
2019-03-25T23:00:44.989Z,100805.95
2019-03-25T23:03:16.499Z,100822.60
2019-03-25T23:05:48.135Z,100825.95
2019-03-25T23:08:20.085Z,100833.20
2019-03-25T23:10:51.687Z,100830.06
2019-03-25T23:13:23.214Z,100840.97
2019-03-25T23:15:54.827Z,100838.35
2019-03-25T23:18:26.140Z,100835.38
2019-03-25T23:20:57.754Z,100839.17
2019-03-25T23:23:29.117Z,100850.14
2019-03-25T23:26:00.433Z,100849.36
2019-03-25T23:28:32.350Z,100849.56
2019-03-25T23:31:04.023Z,100851.05
2019-03-25T23:33:35.781Z,100853.16
2019-03-25T23:36:07.404Z,100857.13
2019-03-25T23:38:38.974Z,100863.31
2019-03-25T23:41:10.355Z,100859.89
2019-03-25T23:43:42.196Z,100855.41
2019-03-25T23:46:13.877Z,100863.02
2019-03-25T23:48:45.532Z,100857.59
2019-03-25T23:51:17.144Z,100867.63
2019-03-25T23:53:48.951Z,100866.39
2019-03-25T23:56:20.348Z,100865.23
2019-03-25T23:58:52.170Z,100874.36
